createdAt,value
2019-04-14T00:01:41.252Z,2.73
2019-04-14T00:04:27.318Z,3.40
2019-04-14T00:06:56.939Z,3.30
2019-04-14T00:09:25.559Z,3.00
2019-04-14T00:11:54.852Z,3.80
2019-04-14T00:14:23.561Z,2.93
2019-04-14T00:16:53.191Z,3.30
2019-04-14T00:19:21.894Z,3.00
2019-04-14T00:21:50.532Z,2.70
2019-04-14T00:24:20.533Z,2.73
2019-04-14T00:26:49.260Z,3.30
2019-04-14T00:29:17.773Z,3.13
2019-04-14T00:31:47.459Z,2.83
2019-04-14T00:34:44.736Z,3.10
2019-04-14T00:37:22.657Z,3.17
2019-04-14T00:39:53.325Z,3.00
2019-04-14T00:42:53.800Z,3.30
2019-04-14T00:45:37.022Z,3.00
2019-04-14T00:48:09.064Z,3.20
2019-04-14T00:50:32.284Z,3.00
2019-04-14T00:53:01.204Z,3.10
2019-04-14T00:55:29.773Z,3.23
2019-04-14T00:57:59.453Z,3.40
2019-04-14T01:00:28.108Z,3.20
2019-04-14T01:02:56.631Z,3.70
2019-04-14T01:05:26.252Z,3.63
2019-04-14T01:07:54.866Z,2.97
2019-04-14T01:10:23.631Z,3.50
2019-04-14T01:12:52.228Z,4.17
2019-04-14T01:15:20.762Z,4.40
2019-04-14T01:17:49.267Z,4.80
2019-04-14T01:20:18.839Z,4.87
2019-04-14T01:22:48.764Z,4.60
2019-04-14T01:25:17.300Z,5.20
2019-04-14T01:27:45.798Z,5.63
2019-04-14T01:30:15.408Z,6.33
2019-04-14T01:32:43.931Z,7.90
2019-04-14T01:35:12.339Z,7.40
2019-04-14T01:37:41.892Z,6.57
2019-04-14T01:40:10.452Z,4.93
2019-04-14T01:42:39.882Z,4.80
2019-04-14T01:45:10.793Z,4.07
2019-04-14T01:47:40.253Z,3.60
2019-04-14T01:50:09.131Z,3.60
2019-04-14T01:52:46.609Z,3.97
2019-04-14T01:55:41.628Z,3.30
2019-04-14T01:58:22.881Z,4.10
2019-04-14T02:01:11.252Z,4.10
2019-04-14T02:03:40.958Z,3.70
2019-04-14T02:06:09.796Z,3.57
2019-04-14T02:08:39.619Z,4.00
2019-04-14T02:11:09.381Z,3.63
2019-04-14T02:13:39.576Z,3.60
2019-04-14T02:16:18.799Z,4.00
2019-04-14T02:18:40.462Z,4.20
2019-04-14T02:21:10.648Z,4.37
2019-04-14T02:23:39.568Z,4.27
2019-04-14T02:26:09.131Z,3.83
2019-04-14T02:28:37.890Z,3.57
2019-04-14T02:31:19.405Z,4.10
2019-04-14T02:33:58.743Z,3.87
2019-04-14T02:39:12.011Z,4.27
2019-04-14T02:41:39.862Z,4.00
2019-04-14T02:44:22.973Z,3.93
2019-04-14T02:46:45.878Z,4.30
2019-04-14T02:49:08.193Z,4.00
2019-04-14T02:51:33.531Z,3.60
2019-04-14T02:56:35.721Z,3.80
2019-04-14T02:59:14.749Z,3.60
2019-04-14T03:01:55.125Z,4.53
2019-04-14T03:04:12.732Z,4.33
2019-04-14T03:06:40.860Z,3.63
2019-04-14T03:09:20.598Z,4.10
2019-04-14T03:14:15.538Z,4.37
2019-04-14T03:17:19.265Z,3.70
2019-04-14T03:19:56.516Z,4.13
2019-04-14T03:22:37.163Z,4.30
2019-04-14T03:25:34.047Z,3.83
2019-04-14T03:28:30.518Z,4.10
2019-04-14T03:43:46.590Z,4.07
2019-04-14T03:46:27.444Z,4.30
2019-04-14T03:51:26.323Z,4.77
2019-04-14T03:53:53.303Z,4.20
2019-04-14T03:56:57.702Z,4.40
2019-04-14T03:59:26.399Z,4.63
2019-04-14T04:01:56.448Z,4.70
2019-04-14T04:04:25.301Z,4.70
2019-04-14T04:06:55.219Z,4.50
2019-04-14T04:09:34.601Z,5.00
2019-04-14T04:12:03.335Z,5.43
2019-04-14T04:14:33.369Z,4.13
2019-04-14T04:17:25.449Z,4.40
2019-04-14T04:20:13.663Z,4.60
2019-04-14T04:23:03.045Z,4.17
2019-04-14T04:25:52.957Z,3.77
2019-04-14T04:28:45.097Z,4.53
2019-04-14T04:31:22.029Z,4.57
2019-04-14T04:33:54.810Z,5.30
2019-04-14T04:36:44.142Z,4.70
2019-04-14T04:39:23.597Z,4.43
2019-04-14T04:41:52.229Z,4.20
2019-04-14T04:44:22.320Z,4.10
2019-04-14T04:46:52.621Z,3.60
2019-04-14T04:49:24.867Z,3.80
2019-04-14T04:51:53.065Z,4.07
2019-04-14T04:54:22.005Z,4.53
2019-04-14T04:56:51.579Z,4.10
2019-04-14T04:59:21.295Z,4.80
2019-04-14T05:01:51.546Z,4.23
2019-04-14T05:04:21.731Z,3.60
2019-04-14T05:07:01.290Z,3.90
2019-04-14T05:09:56.098Z,3.93
2019-04-14T05:12:35.511Z,3.43
2019-04-14T05:15:40.559Z,3.97
2019-04-14T05:18:13.960Z,3.30
2019-04-14T05:20:42.674Z,3.37
2019-04-14T05:23:12.522Z,4.07
2019-04-14T05:25:43.031Z,4.83
2019-04-14T05:28:11.879Z,5.50
2019-04-14T05:30:41.508Z,6.03
2019-04-14T05:33:11.979Z,6.60
2019-04-14T05:35:42.111Z,6.23
2019-04-14T05:38:11.118Z,6.17
2019-04-14T05:40:40.835Z,6.33
2019-04-14T05:43:09.717Z,6.20
2019-04-14T05:45:39.540Z,6.53
2019-04-14T05:48:09.621Z,6.00
2019-04-14T05:50:39.992Z,5.53
2019-04-14T05:53:08.916Z,4.70
2019-04-14T05:55:37.529Z,4.90
2019-04-14T05:58:06.366Z,5.40
2019-04-14T06:00:36.397Z,4.60
2019-04-14T06:03:05.961Z,4.80
2019-04-14T06:05:36.071Z,5.33
2019-04-14T06:08:05.146Z,5.40
2019-04-14T06:10:34.406Z,6.40
2019-04-14T06:13:03.166Z,6.80
2019-04-14T06:15:32.570Z,6.23
2019-04-14T06:18:01.927Z,6.90
2019-04-14T06:20:30.740Z,6.63
2019-04-14T06:22:59.458Z,6.20
2019-04-14T06:25:28.414Z,6.53
2019-04-14T06:27:57.238Z,5.83
2019-04-14T06:30:43.978Z,5.47
2019-04-14T06:33:41.336Z,6.30
2019-04-14T06:36:35.210Z,5.77
2019-04-14T06:39:09.758Z,5.90
2019-04-14T06:41:38.461Z,5.23
2019-04-14T06:44:07.096Z,5.80
2019-04-14T06:46:35.836Z,5.87
2019-04-14T06:49:04.823Z,6.53
2019-04-14T06:51:33.519Z,5.13
2019-04-14T06:54:02.236Z,6.40
2019-04-14T06:56:31.057Z,5.50
2019-04-14T06:59:00.066Z,6.87
2019-04-14T07:01:28.776Z,6.73
2019-04-14T07:03:57.624Z,4.93
2019-04-14T07:06:27.019Z,5.10
2019-04-14T07:08:55.753Z,6.23
2019-04-14T07:11:24.759Z,6.90
2019-04-14T07:13:53.780Z,6.37
2019-04-14T07:16:22.512Z,6.00
2019-04-14T07:18:51.325Z,5.90
2019-04-14T07:21:20.038Z,5.90
2019-04-14T07:23:48.656Z,5.73
2019-04-14T07:26:17.265Z,5.07
2019-04-14T07:28:56.190Z,5.57
2019-04-14T07:31:35.821Z,5.90
2019-04-14T07:34:39.091Z,4.53
2019-04-14T07:37:25.502Z,6.00
2019-04-14T07:39:57.342Z,6.00
2019-04-14T07:42:51.585Z,7.37
2019-04-14T07:45:24.300Z,6.60
2019-04-14T07:48:21.165Z,4.77
2019-04-14T07:51:09.213Z,2.70
2019-04-14T07:53:48.147Z,2.90
2019-04-14T07:56:38.747Z,2.97
2019-04-14T07:59:13.357Z,2.93
2019-04-14T08:02:04.540Z,2.60
2019-04-14T08:04:35.763Z,2.77
2019-04-14T08:07:04.245Z,3.10
2019-04-14T08:09:32.869Z,3.00
2019-04-14T08:12:01.387Z,3.57
2019-04-14T08:14:29.845Z,5.23
2019-04-14T08:16:58.347Z,6.03
2019-04-14T08:19:26.856Z,3.93
2019-04-14T08:21:55.375Z,3.60
2019-04-14T08:24:23.884Z,4.23
2019-04-14T08:26:52.391Z,4.10
2019-04-14T08:29:20.907Z,4.50
2019-04-14T08:31:49.502Z,4.03
2019-04-14T08:34:18.049Z,5.17
2019-04-14T08:36:46.707Z,4.20
2019-04-14T08:39:15.222Z,4.40
2019-04-14T08:42:06.155Z,3.60
2019-04-14T08:44:42.752Z,4.00
2019-04-14T08:47:39.756Z,4.40
2019-04-14T08:50:38.711Z,3.00
2019-04-14T08:53:01.206Z,3.40
2019-04-14T08:55:49.265Z,3.50
2019-04-14T08:58:36.219Z,3.40
2019-04-14T09:01:20.977Z,4.50
2019-04-14T09:04:11.672Z,3.60
2019-04-14T09:07:05.562Z,4.27
2019-04-14T09:09:38.661Z,3.53
2019-04-14T09:12:15.777Z,3.20
2019-04-14T09:14:41.213Z,3.50
2019-04-14T09:17:09.922Z,3.80
2019-04-14T09:19:38.505Z,3.70
2019-04-14T09:22:07.160Z,4.07
2019-04-14T09:24:36.304Z,4.20
2019-04-14T09:27:04.843Z,4.00
2019-04-14T09:29:33.471Z,5.47
2019-04-14T09:32:02.445Z,4.03
2019-04-14T09:34:31.128Z,4.50
2019-04-14T09:36:59.802Z,3.37
2019-04-14T09:39:28.446Z,3.03
2019-04-14T09:41:57.140Z,3.67
2019-04-14T09:44:25.670Z,3.23
2019-04-14T09:46:54.085Z,3.43
2019-04-14T09:49:22.658Z,3.40
2019-04-14T09:51:51.206Z,2.67
2019-04-14T09:54:19.726Z,2.57
2019-04-14T09:56:48.280Z,2.20
2019-04-14T09:59:16.803Z,2.13
2019-04-14T10:01:45.474Z,3.00
2019-04-14T10:04:14.128Z,2.07
2019-04-14T10:06:42.595Z,1.93
2019-04-14T10:09:11.377Z,2.10
2019-04-14T10:11:48.384Z,1.67
2019-04-14T10:14:10.616Z,2.00
2019-04-14T10:16:39.066Z,2.00
2019-04-14T10:19:07.704Z,2.00
2019-04-14T10:21:36.332Z,2.07
2019-04-14T10:24:04.852Z,1.90
2019-04-14T10:26:33.375Z,1.93
2019-04-14T10:29:01.909Z,2.50
2019-04-14T10:31:30.484Z,2.97
2019-04-14T10:33:58.916Z,2.70
2019-04-14T10:36:27.556Z,3.23
2019-04-14T10:38:56.284Z,3.17
2019-04-14T10:41:24.755Z,3.20
2019-04-14T10:43:53.397Z,2.50
2019-04-14T10:46:21.936Z,3.30
2019-04-14T10:48:50.432Z,3.10
2019-04-14T10:51:29.381Z,2.80
2019-04-14T10:53:49.819Z,3.20
2019-04-14T10:56:18.602Z,3.10
2019-04-14T10:58:47.322Z,2.50
2019-04-14T11:01:16.192Z,2.50
2019-04-14T11:03:44.910Z,2.17
2019-04-14T11:06:22.909Z,2.00
2019-04-14T11:08:51.535Z,2.40
2019-04-14T11:11:20.266Z,1.60
2019-04-14T11:13:49.083Z,1.90
2019-04-14T11:16:17.933Z,2.03
2019-04-14T11:18:46.647Z,1.70
2019-04-14T11:21:15.398Z,1.47
2019-04-14T11:23:45.507Z,1.90
2019-04-14T11:26:14.352Z,2.10
2019-04-14T11:28:42.988Z,2.37
2019-04-14T11:31:12.757Z,1.87
2019-04-14T11:34:00.288Z,2.30
2019-04-14T11:36:57.029Z,1.67
2019-04-14T11:39:26.002Z,2.23
2019-04-14T11:41:54.640Z,1.90
2019-04-14T11:44:23.261Z,2.07
2019-04-14T11:46:51.987Z,1.73
2019-04-14T11:49:20.498Z,1.63
2019-04-14T11:51:55.104Z,1.50
2019-04-14T11:54:19.292Z,2.27
2019-04-14T11:56:47.675Z,2.10
2019-04-14T11:59:18.067Z,1.70
2019-04-14T12:02:12.127Z,2.27
2019-04-14T12:05:00.231Z,1.90
2019-04-14T12:07:35.168Z,2.53
2019-04-14T12:10:07.448Z,1.50
2019-04-14T12:12:36.184Z,1.50
2019-04-14T12:15:07.721Z,1.43
2019-04-14T12:17:36.267Z,1.80
2019-04-14T12:20:06.629Z,2.17
2019-04-14T12:22:35.176Z,1.90
2019-04-14T12:25:04.698Z,2.20
2019-04-14T12:27:33.228Z,2.00
2019-04-14T12:30:01.710Z,2.97
2019-04-14T12:32:30.346Z,2.53
2019-04-14T12:34:58.879Z,2.70
2019-04-14T12:37:27.519Z,2.00
2019-04-14T12:39:56.004Z,2.83
2019-04-14T12:42:43.131Z,3.50
2019-04-14T12:45:43.543Z,2.13
2019-04-14T12:48:49.537Z,3.60
2019-04-14T12:51:25.243Z,4.30
2019-04-14T12:53:53.827Z,4.40
2019-04-14T12:56:25.076Z,3.60
2019-04-14T12:59:15.898Z,4.33
2019-04-14T13:02:04.490Z,4.40
2019-04-14T13:04:33.137Z,2.10
2019-04-14T13:07:01.756Z,2.00
2019-04-14T13:09:31.379Z,1.20
2019-04-14T13:12:00.009Z,2.50
2019-04-14T13:14:28.456Z,4.10
2019-04-14T13:16:56.961Z,4.60
2019-04-14T13:19:25.677Z,4.97
2019-04-14T13:21:54.222Z,5.80
2019-04-14T13:24:31.994Z,3.93
2019-04-14T13:27:00.527Z,5.40
2019-04-14T13:29:28.959Z,3.10
2019-04-14T13:31:57.412Z,3.23
2019-04-14T13:34:25.949Z,3.67
2019-04-14T13:36:54.359Z,4.53
2019-04-14T13:39:22.883Z,3.03
2019-04-14T13:41:51.477Z,3.13
2019-04-14T13:44:19.989Z,2.80
2019-04-14T13:46:48.493Z,1.90
2019-04-14T13:49:17.197Z,2.27
2019-04-14T13:51:45.815Z,2.87
2019-04-14T13:54:14.461Z,2.77
2019-04-14T13:56:42.983Z,2.70
2019-04-14T13:59:11.456Z,1.90
2019-04-14T14:01:40.003Z,1.30
2019-04-14T14:04:08.628Z,1.47
2019-04-14T14:06:37.243Z,1.40
2019-04-14T14:09:10.205Z,1.20
2019-04-14T14:11:58.361Z,1.60
2019-04-14T14:14:49.042Z,1.30
2019-04-14T14:17:40.059Z,1.30
2019-04-14T14:20:13.419Z,1.03
2019-04-14T14:23:16.359Z,1.43
2019-04-14T14:25:48.809Z,1.63
2019-04-14T14:28:17.327Z,1.20
2019-04-14T14:30:45.846Z,1.67
2019-04-14T14:33:14.405Z,1.47
2019-04-14T14:35:42.973Z,1.90
2019-04-14T14:38:11.635Z,2.20
2019-04-14T14:40:40.140Z,1.50
2019-04-14T14:43:08.775Z,1.30
2019-04-14T14:46:02.776Z,1.17
2019-04-14T14:48:34.889Z,1.50
2019-04-14T14:51:25.887Z,1.90
2019-04-14T14:53:54.515Z,2.20
2019-04-14T14:56:23.141Z,1.80
2019-04-14T14:58:51.543Z,1.80
2019-04-14T15:01:19.974Z,2.57
2019-04-14T15:03:48.488Z,1.90
2019-04-14T15:06:17.050Z,1.70
2019-04-14T15:08:45.495Z,1.60
2019-04-14T15:11:14.158Z,2.77
2019-04-14T15:13:42.794Z,7.50
2019-04-14T15:16:11.463Z,5.30
2019-04-14T15:18:40.011Z,4.80
2019-04-14T15:21:08.451Z,9.53
2019-04-14T15:23:36.887Z,5.13
2019-04-14T15:26:05.436Z,2.70
2019-04-14T15:28:33.940Z,2.53
2019-04-14T15:31:02.534Z,2.63
2019-04-14T15:33:31.172Z,3.97
2019-04-14T15:35:59.916Z,2.80
2019-04-14T15:38:28.452Z,3.20
2019-04-14T15:40:57.135Z,2.40
2019-04-14T15:43:25.679Z,2.30
2019-04-14T15:45:54.226Z,2.73
2019-04-14T15:48:22.759Z,4.83
2019-04-14T15:50:51.515Z,6.50
2019-04-14T15:53:20.477Z,6.57
2019-04-14T15:55:49.353Z,5.50
2019-04-14T15:58:38.743Z,7.77
2019-04-14T16:01:31.917Z,5.43
2019-04-14T16:04:09.584Z,8.87
2019-04-14T16:06:53.796Z,5.47
2019-04-14T16:09:42.087Z,2.40
2019-04-14T16:12:39.217Z,2.50
2019-04-14T16:15:26.712Z,4.30
2019-04-14T16:18:23.516Z,7.10
2019-04-14T16:20:52.043Z,4.13
2019-04-14T16:23:20.584Z,3.07
2019-04-14T16:26:23.822Z,2.60
2019-04-14T16:29:02.531Z,3.63
2019-04-14T16:31:49.583Z,7.30
2019-04-14T16:34:24.822Z,36.33
2019-04-14T16:36:53.285Z,10.63
2019-04-14T16:39:21.901Z,6.27
2019-04-14T16:41:50.407Z,4.87
2019-04-14T16:44:19.325Z,3.50
2019-04-14T16:46:47.995Z,3.17
2019-04-14T16:49:16.527Z,4.90
2019-04-14T16:51:49.596Z,4.50
2019-04-14T16:54:46.643Z,5.10
2019-04-14T16:57:37.358Z,6.43
2019-04-14T17:00:07.859Z,5.40
2019-04-14T17:02:36.388Z,4.93
2019-04-14T17:05:05.336Z,6.27
2019-04-14T17:07:33.975Z,6.93
2019-04-14T17:10:02.904Z,6.33
2019-04-14T17:12:31.703Z,9.13
2019-04-14T17:15:10.850Z,8.00
2019-04-14T17:18:05.010Z,6.90
2019-04-14T17:20:51.291Z,4.70
2019-04-14T17:23:34.150Z,4.60
2019-04-14T17:26:08.564Z,6.50
2019-04-14T17:28:59.428Z,9.17
2019-04-14T17:32:02.583Z,13.23
2019-04-14T17:34:56.593Z,14.23
2019-04-14T17:37:43.155Z,15.33
2019-04-14T17:40:25.244Z,14.93
2019-04-14T17:43:16.604Z,18.50
2019-04-14T17:45:57.608Z,16.67
2019-04-14T17:48:44.298Z,20.53
2019-04-14T17:51:18.463Z,16.90
2019-04-14T17:54:29.028Z,10.77
2019-04-14T17:56:59.182Z,6.57
2019-04-14T17:59:49.808Z,6.97
2019-04-14T18:02:29.286Z,8.73
2019-04-14T18:05:09.939Z,9.70
2019-04-14T18:07:43.640Z,11.57
2019-04-14T18:10:17.883Z,11.87
2019-04-14T18:13:21.353Z,10.47
2019-04-14T18:16:00.927Z,9.23
2019-04-14T18:18:52.855Z,8.00
2019-04-14T18:21:21.524Z,7.03
2019-04-14T18:23:50.074Z,7.60
2019-04-14T18:26:18.680Z,6.47
2019-04-14T18:28:52.098Z,7.60
2019-04-14T18:31:49.044Z,8.20
2019-04-14T18:34:45.852Z,8.50
2019-04-14T18:37:32.577Z,7.27
2019-04-14T18:40:23.258Z,10.17
2019-04-14T18:43:12.735Z,7.83
2019-04-14T18:46:06.978Z,8.57
2019-04-14T18:49:00.963Z,7.80
2019-04-14T18:51:42.290Z,8.20
2019-04-14T18:54:26.843Z,8.03
2019-04-14T18:57:17.529Z,8.73
2019-04-14T18:59:56.581Z,9.03
2019-04-14T19:02:24.999Z,15.13
2019-04-14T19:04:53.607Z,9.80
2019-04-14T19:07:22.133Z,8.47
2019-04-14T19:09:50.811Z,7.77
2019-04-14T19:12:42.570Z,8.83
2019-04-14T19:15:29.497Z,10.37
2019-04-14T19:18:17.597Z,11.30
2019-04-14T19:20:50.986Z,11.97
2019-04-14T19:23:19.462Z,13.37
2019-04-14T19:25:48.123Z,13.23
2019-04-14T19:28:16.700Z,14.80
2019-04-14T19:30:45.283Z,16.43
2019-04-14T19:33:13.969Z,17.17
2019-04-14T19:35:42.529Z,14.77
2019-04-14T19:38:11.172Z,17.43
2019-04-14T19:40:39.706Z,17.03
2019-04-14T19:43:08.492Z,14.87
2019-04-14T19:45:37.293Z,8.87
2019-04-14T19:48:05.974Z,7.07
2019-04-14T19:50:34.708Z,5.93
2019-04-14T19:53:03.525Z,5.23
2019-04-14T19:55:32.138Z,4.63
2019-04-14T19:58:00.973Z,4.73
2019-04-14T20:00:29.598Z,3.50
2019-04-14T20:02:58.235Z,4.10
2019-04-14T20:05:26.793Z,5.07
2019-04-14T20:07:55.352Z,4.67
2019-04-14T20:10:23.986Z,4.37
2019-04-14T20:12:52.666Z,4.70
2019-04-14T20:15:34.285Z,3.90
2019-04-14T20:18:22.419Z,3.20
2019-04-14T20:21:08.885Z,3.13
2019-04-14T20:24:02.031Z,2.80
2019-04-14T20:26:50.126Z,2.60
2019-04-14T20:29:25.058Z,3.03
2019-04-14T20:32:00.350Z,2.70
2019-04-14T20:34:28.849Z,2.93
2019-04-14T20:36:57.511Z,3.87
2019-04-14T20:39:27.943Z,3.93
2019-04-14T20:41:56.664Z,4.43
2019-04-14T20:44:25.111Z,4.63
2019-04-14T20:46:53.607Z,5.13
2019-04-14T20:49:22.255Z,3.70
2019-04-14T20:51:50.682Z,4.47
2019-04-14T20:54:19.348Z,3.90
2019-04-14T20:56:47.920Z,4.10
2019-04-14T20:59:16.451Z,3.27
2019-04-14T21:01:52.032Z,3.67
2019-04-14T21:04:37.728Z,3.37
2019-04-14T21:07:37.617Z,3.73
2019-04-14T21:10:25.982Z,3.93
2019-04-14T21:13:16.726Z,3.43
2019-04-14T21:15:53.738Z,3.20
2019-04-14T21:18:28.992Z,3.00
2019-04-14T21:21:19.770Z,3.10
2019-04-14T21:24:05.889Z,3.47
2019-04-14T21:26:47.175Z,3.17
2019-04-14T21:29:41.314Z,2.83
2019-04-14T21:32:18.633Z,3.10
2019-04-14T21:35:12.545Z,3.53
2019-04-14T21:38:06.481Z,3.37
2019-04-14T21:40:50.019Z,2.73
2019-04-14T21:43:18.510Z,3.20
2019-04-14T21:45:47.110Z,3.70
2019-04-14T21:48:15.536Z,3.30
2019-04-14T21:50:44.033Z,2.93
2019-04-14T21:53:12.443Z,3.33
2019-04-14T21:55:40.961Z,3.20
2019-04-14T21:58:29.098Z,3.10
2019-04-14T22:01:51.360Z,3.27
2019-04-14T22:04:39.087Z,3.27
2019-04-14T22:07:45.432Z,3.37
2019-04-14T22:10:33.511Z,3.47
2019-04-14T22:13:02.128Z,3.80
2019-04-14T22:15:30.740Z,3.60
2019-04-14T22:18:00.165Z,3.50
2019-04-14T22:20:28.772Z,3.90
2019-04-14T22:22:58.372Z,3.87
2019-04-14T22:25:26.991Z,3.80
2019-04-14T22:27:55.496Z,3.67
2019-04-14T22:30:23.913Z,3.67
2019-04-14T22:32:52.328Z,4.40
2019-04-14T22:35:20.865Z,3.90
2019-04-14T22:37:49.486Z,4.20
2019-04-14T22:40:18.042Z,3.60
2019-04-14T22:42:46.622Z,3.37
2019-04-14T22:45:15.229Z,4.13
2019-04-14T22:47:43.792Z,4.03
2019-04-14T22:50:12.434Z,3.90
2019-04-14T22:52:40.965Z,3.70
2019-04-14T22:55:09.368Z,3.67
2019-04-14T22:57:37.882Z,3.60
2019-04-14T23:00:09.186Z,4.20
2019-04-14T23:03:09.581Z,4.30
2019-04-14T23:06:03.433Z,4.00
2019-04-14T23:08:49.049Z,4.40
2019-04-14T23:11:36.038Z,3.87
2019-04-14T23:14:27.776Z,3.83
2019-04-14T23:17:15.828Z,3.93
2019-04-14T23:19:56.283Z,4.17
2019-04-14T23:22:47.146Z,4.83
2019-04-14T23:25:15.869Z,4.37
2019-04-14T23:27:44.634Z,4.60
2019-04-14T23:30:13.498Z,4.17
2019-04-14T23:32:41.984Z,4.20
2019-04-14T23:35:10.499Z,4.13
2019-04-14T23:37:39.084Z,4.10
2019-04-14T23:40:08.307Z,4.23
2019-04-14T23:42:36.823Z,4.33
2019-04-14T23:45:05.594Z,4.33
2019-04-14T23:47:34.142Z,4.63
2019-04-14T23:50:02.826Z,4.20
2019-04-14T23:52:31.512Z,4.10
2019-04-14T23:55:00.155Z,4.10
2019-04-14T23:57:28.625Z,4.27
2019-04-14T23:59:57.263Z,3.63
